Time;durP1;ratioP1;P1;durP2;ratioP2;P2;SDS_P1;SDS_P2;PMS_P1;PMS_P2;Temp;Humidity;BMP_temperature;BMP_pressure;BME280_temperature;BME280_humidity;BME280_pressure;Samples;Min_cycle;Max_cycle;Signal;HPM_P1;HPM_P2
2021/03/18 12:57:41;;;;;;;3.35;1.60;;;;;;;;;;5155313;27;20293;-80
2021/03/18 13:00:09;;;;;;;3.03;1.90;;;;;;;;;;5170697;27;20102;-80
2021/03/18 13:02:35;;;;;;;3.40;1.63;;;;;;;;;;5173885;27;20023;-81
2021/03/18 13:05:01;;;;;;;4.95;1.75;;;;;;;;;;5174586;27;20014;-80
2021/03/18 13:07:27;;;;;;;4.93;1.83;;;;;;;;;;5174872;27;20110;-80
2021/03/18 13:09:53;;;;;;;3.50;1.65;;;;;;;;;;5175428;27;20068;-80
2021/03/18 13:12:19;;;;;;;3.00;1.95;;;;;;;;;;5175069;27;20531;-80
2021/03/18 13:14:45;;;;;;;3.05;1.83;;;;;;;;;;5157312;27;20114;-80
2021/03/18 13:17:11;;;;;;;3.58;1.45;;;;;;;;;;5176728;27;20025;-80
2021/03/18 13:19:37;;;;;;;3.97;1.40;;;;;;;;;;5177850;27;20098;-80
2021/03/18 13:22:06;;;;;;;2.20;1.45;;;;;;;;;;5174642;27;20091;-81
2021/03/18 13:24:32;;;;;;;3.50;1.40;;;;;;;;;;5175281;27;20253;-80
2021/03/18 13:26:58;;;;;;;6.30;3.25;;;;;;;;;;5161277;27;20041;-80
2021/03/18 13:29:24;;;;;;;3.40;1.40;;;;;;;;;;5152693;27;20026;-80
2021/03/18 13:31:50;;;;;;;4.53;1.63;;;;;;;;;;5137314;27;20460;-81
2021/03/18 13:34:16;;;;;;;4.07;1.73;;;;;;;;;;5136446;27;20034;-80
2021/03/18 13:36:42;;;;;;;2.83;1.42;;;;;;;;;;5153510;27;20228;-81
2021/03/18 13:39:08;;;;;;;3.63;1.83;;;;;;;;;;5154520;27;20019;-80
2021/03/18 13:41:35;;;;;;;6.55;1.85;;;;;;;;;;5154302;27;20047;-80
2021/03/18 13:44:01;;;;;;;4.57;2.22;;;;;;;;;;5139367;27;20114;-80
2021/03/18 13:46:27;;;;;;;7.35;2.67;;;;;;;;;;5137428;27;20015;-80
2021/03/18 13:48:53;;;;;;;6.10;2.50;;;;;;;;;;5144281;27;20019;-80
2021/03/18 13:51:19;;;;;;;4.70;2.03;;;;;;;;;;5140140;27;20083;-81
2021/03/18 13:53:45;;;;;;;5.32;1.85;;;;;;;;;;5120776;27;20047;-80
2021/03/18 13:56:12;;;;;;;3.20;1.48;;;;;;;;;;5140348;27;20092;-81
2021/03/18 13:58:38;;;;;;;10.48;1.65;;;;;;;;;;5144339;27;20023;-80
2021/03/18 14:01:04;;;;;;;6.15;1.77;;;;;;;;;;5173596;27;20042;-80
2021/03/18 14:03:30;;;;;;;5.25;1.30;;;;;;;;;;5171618;27;20034;-81
2021/03/18 14:05:56;;;;;;;2.90;1.75;;;;;;;;;;5171780;27;20133;-80
2021/03/18 14:08:22;;;;;;;5.82;1.80;;;;;;;;;;5144740;27;20062;-80
2021/03/18 14:10:49;;;;;;;3.65;1.90;;;;;;;;;;5141235;27;20395;-80
2021/03/18 14:13:16;;;;;;;4.18;1.90;;;;;;;;;;5157203;27;20039;-80
2021/03/18 14:15:43;;;;;;;2.97;1.60;;;;;;;;;;5158437;27;20210;-80
2021/03/18 14:18:09;;;;;;;4.45;1.70;;;;;;;;;;5159019;27;20047;-80
2021/03/18 14:20:36;;;;;;;3.15;1.70;;;;;;;;;;5157872;27;20511;-80
2021/03/18 14:23:03;;;;;;;4.40;1.98;;;;;;;;;;5157969;27;20027;-80
2021/03/18 14:25:30;;;;;;;5.43;2.72;;;;;;;;;;5159798;27;20518;-80
2021/03/18 14:27:56;;;;;;;7.38;3.08;;;;;;;;;;5158589;27;20018;-80
2021/03/18 14:30:23;;;;;;;4.47;2.08;;;;;;;;;;5158490;27;20117;-80
2021/03/18 14:32:49;;;;;;;3.25;1.50;;;;;;;;;;5159655;27;20053;-80
2021/03/18 14:35:15;;;;;;;3.13;1.85;;;;;;;;;;5158345;27;20031;-80
2021/03/18 14:37:41;;;;;;;4.53;1.75;;;;;;;;;;5159186;27;20031;-80
2021/03/18 14:40:09;;;;;;;4.68;2.20;;;;;;;;;;5159440;27;20046;-80
2021/03/18 14:42:35;;;;;;;6.95;1.90;;;;;;;;;;5155944;27;20042;-80
2021/03/18 14:45:01;;;;;;;3.72;1.70;;;;;;;;;;5174388;27;20019;-79
2021/03/18 14:47:27;;;;;;;3.75;1.60;;;;;;;;;;5173152;27;20040;-80
2021/03/18 14:49:53;;;;;;;3.35;1.75;;;;;;;;;;5162095;27;20082;-80
2021/03/18 14:52:20;;;;;;;4.43;2.13;;;;;;;;;;5160600;27;20026;-80
2021/03/18 14:54:46;;;;;;;3.85;1.90;;;;;;;;;;5161001;27;20023;-80
2021/03/18 14:57:12;;;;;;;8.30;2.53;;;;;;;;;;5143492;27;20495;-80
2021/03/18 14:59:38;;;;;;;3.30;1.75;;;;;;;;;;5139587;27;20090;-81
2021/03/18 15:02:04;;;;;;;3.63;1.75;;;;;;;;;;5118382;28;20074;-80
2021/03/18 15:04:30;;;;;;;5.53;2.60;;;;;;;;;;5102960;28;20032;-81
2021/03/18 15:06:56;;;;;;;6.95;1.73;;;;;;;;;;5119642;28;20028;-81
2021/03/18 15:09:22;;;;;;;4.22;1.83;;;;;;;;;;5121123;28;20079;-81
2021/03/18 15:11:48;;;;;;;4.65;1.77;;;;;;;;;;5103494;28;20027;-81
2021/03/18 15:14:15;;;;;;;4.22;2.33;;;;;;;;;;5104940;28;20080;-80
2021/03/18 15:16:41;;;;;;;3.83;2.05;;;;;;;;;;5103801;28;20035;-81
2021/03/18 15:19:08;;;;;;;6.60;1.95;;;;;;;;;;5120608;28;20444;-81
2021/03/18 15:21:34;;;;;;;3.75;1.70;;;;;;;;;;5122419;28;20482;-80
2021/03/18 15:24:00;;;;;;;4.70;1.85;;;;;;;;;;5103063;28;20091;-81
2021/03/18 15:26:27;;;;;;;2.72;1.40;;;;;;;;;;5112635;27;20027;-80
2021/03/18 15:28:53;;;;;;;2.53;1.08;;;;;;;;;;5136353;27;20029;-80
2021/03/18 15:31:20;;;;;;;2.80;1.50;;;;;;;;;;5119181;28;20097;-81
2021/03/18 15:33:46;;;;;;;2.10;1.20;;;;;;;;;;5121062;28;20034;-82
2021/03/18 15:36:13;;;;;;;3.60;1.30;;;;;;;;;;5119845;28;20057;-81
2021/03/18 15:38:39;;;;;;;3.15;1.30;;;;;;;;;;5119538;28;20027;-81
2021/03/18 15:41:05;;;;;;;4.43;1.85;;;;;;;;;;5121027;28;20031;-81
2021/03/18 15:43:31;;;;;;;4.18;1.30;;;;;;;;;;5122148;28;20020;-81
2021/03/18 15:45:58;;;;;;;4.60;1.10;;;;;;;;;;5106959;28;20035;-81
2021/03/18 15:48:24;;;;;;;4.40;1.30;;;;;;;;;;5127276;28;20032;-81
2021/03/18 15:50:51;;;;;;;3.22;1.10;;;;;;;;;;5119163;28;20031;-81
2021/03/18 15:53:17;;;;;;;3.25;1.38;;;;;;;;;;5120134;28;20023;-81
2021/03/18 15:55:44;;;;;;;3.88;1.27;;;;;;;;;;5128524;27;20058;-81
2021/03/18 15:58:10;;;;;;;4.55;1.65;;;;;;;;;;5141640;27;20053;-82
2021/03/18 16:00:37;;;;;;;3.60;1.20;;;;;;;;;;5139614;27;20084;-80
2021/03/18 16:03:03;;;;;;;7.65;1.90;;;;;;;;;;5127896;27;20016;-80
2021/03/18 16:05:29;;;;;;;4.15;1.40;;;;;;;;;;5128905;27;20498;-79
2021/03/18 16:07:56;;;;;;;2.95;1.20;;;;;;;;;;5129036;27;20019;-79
2021/03/18 16:10:22;;;;;;;5.00;2.20;;;;;;;;;;5134463;27;20027;-79
2021/03/18 16:12:49;;;;;;;3.95;1.75;;;;;;;;;;5116554;27;20429;-79
2021/03/18 16:15:15;;;;;;;2.30;1.20;;;;;;;;;;5133550;27;20027;-79
2021/03/18 16:17:41;;;;;;;3.65;1.20;;;;;;;;;;5125071;27;20152;-79
2021/03/18 16:20:09;;;;;;;2.97;1.30;;;;;;;;;;5133975;27;20024;-79
2021/03/18 16:22:36;;;;;;;2.72;1.60;;;;;;;;;;5129093;27;20030;-79
2021/03/18 16:25:02;;;;;;;2.70;1.60;;;;;;;;;;5095706;28;20023;-80
2021/03/18 16:27:28;;;;;;;2.15;1.35;;;;;;;;;;5112996;28;20041;-79
2021/03/18 16:29:54;;;;;;;4.45;1.52;;;;;;;;;;5112433;28;20510;-79
2021/03/18 16:32:20;;;;;;;4.75;1.30;;;;;;;;;;5112764;28;20039;-79
2021/03/18 16:34:46;;;;;;;4.38;1.83;;;;;;;;;;5131548;27;20027;-79
2021/03/18 16:37:12;;;;;;;4.28;1.70;;;;;;;;;;5118185;27;20118;-78
2021/03/18 16:39:38;;;;;;;4.18;1.52;;;;;;;;;;5105749;28;20020;-79
2021/03/18 16:42:05;;;;;;;2.40;1.35;;;;;;;;;;5095246;28;20023;-79
2021/03/18 16:44:31;;;;;;;3.15;1.60;;;;;;;;;;5112793;28;20023;-79
2021/03/18 16:46:57;;;;;;;7.72;1.88;;;;;;;;;;5113139;27;20028;-78
2021/03/18 16:49:23;;;;;;;3.55;1.85;;;;;;;;;;5093890;28;20104;-79
2021/03/18 16:51:50;;;;;;;3.75;1.60;;;;;;;;;;5115198;28;20057;-81
2021/03/18 16:54:17;;;;;;;5.60;2.88;;;;;;;;;;5123760;28;20511;-81
2021/03/18 16:56:43;;;;;;;5.00;2.22;;;;;;;;;;5117221;27;20042;-79
2021/03/18 16:59:09;;;;;;;3.47;1.92;;;;;;;;;;5125638;28;20018;-79
2021/03/18 17:01:35;;;;;;;4.13;1.70;;;;;;;;;;5122572;28;20059;-80
2021/03/18 17:04:04;;;;;;;3.63;1.70;;;;;;;;;;5117567;28;20039;-81
2021/03/18 17:06:31;;;;;;;6.82;2.70;;;;;;;;;;5134183;27;20023;-82
2021/03/18 17:08:57;;;;;;;7.88;3.15;;;;;;;;;;5117691;28;20403;-82
2021/03/18 17:11:24;;;;;;;7.00;3.00;;;;;;;;;;5133678;28;20027;-81
2021/03/18 17:13:51;;;;;;;3.92;1.70;;;;;;;;;;5135712;28;20090;-81
2021/03/18 17:16:18;;;;;;;6.15;2.10;;;;;;;;;;5134228;28;20086;-82
2021/03/18 17:18:44;;;;;;;8.32;4.90;;;;;;;;;;5135548;28;20045;-82
2021/03/18 17:21:10;;;;;;;3.38;1.60;;;;;;;;;;5136991;28;20019;-81
2021/03/18 17:23:36;;;;;;;5.28;1.77;;;;;;;;;;5136283;28;20102;-82
2021/03/18 17:26:02;;;;;;;7.68;3.28;;;;;;;;;;5136719;28;20098;-82
2021/03/18 17:28:28;;;;;;;4.07;2.28;;;;;;;;;;5135318;28;20019;-82
2021/03/18 17:30:57;;;;;;;7.30;2.33;;;;;;;;;;5137203;27;20030;-81
2021/03/18 17:33:23;;;;;;;4.60;2.13;;;;;;;;;;5137527;28;20095;-80
2021/03/18 17:35:50;;;;;;;2.85;1.58;;;;;;;;;;5117854;28;20030;-80
2021/03/18 17:38:16;;;;;;;4.78;1.50;;;;;;;;;;5117814;28;20023;-80
2021/03/18 17:40:42;;;;;;;4.22;1.60;;;;;;;;;;5139245;28;20023;-80
2021/03/18 17:43:09;;;;;;;3.10;1.30;;;;;;;;;;5139355;27;20019;-80
2021/03/18 17:45:37;;;;;;;3.15;1.80;;;;;;;;;;5140287;27;20058;-81
2021/03/18 17:48:03;;;;;;;4.65;1.85;;;;;;;;;;5137413;27;20099;-81
2021/03/18 17:50:30;;;;;;;5.32;1.70;;;;;;;;;;5120167;27;20080;-81
2021/03/18 17:52:56;;;;;;;2.85;1.77;;;;;;;;;;5136995;27;20023;-80
2021/03/18 17:55:22;;;;;;;3.00;1.30;;;;;;;;;;5137500;27;20571;-80
2021/03/18 17:57:49;;;;;;;5.40;1.90;;;;;;;;;;5140455;27;20480;-82
2021/03/18 18:00:17;;;;;;;4.13;1.55;;;;;;;;;;5155425;27;20023;-80
2021/03/18 18:02:43;;;;;;;6.05;1.90;;;;;;;;;;5159654;27;20364;-80
2021/03/18 18:05:10;;;;;;;4.22;1.77;;;;;;;;;;5158978;27;20151;-80
2021/03/18 18:07:37;;;;;;;5.95;1.60;;;;;;;;;;5144358;27;20033;-82
2021/03/18 18:10:03;;;;;;;5.00;2.10;;;;;;;;;;5146072;27;20111;-82
2021/03/18 18:12:30;;;;;;;5.18;2.00;;;;;;;;;;5141227;27;20034;-80
2021/03/18 18:14:56;;;;;;;5.28;2.03;;;;;;;;;;5139791;27;20022;-82
2021/03/18 18:17:22;;;;;;;5.50;3.40;;;;;;;;;;5138341;27;20027;-81
2021/03/18 18:19:48;;;;;;;4.72;2.33;;;;;;;;;;5136640;27;20036;-80
2021/03/18 18:22:14;;;;;;;7.15;2.30;;;;;;;;;;5119477;27;20079;-80
2021/03/18 18:24:40;;;;;;;7.30;2.80;;;;;;;;;;5141291;27;20027;-81
2021/03/18 18:27:07;;;;;;;11.98;3.15;;;;;;;;;;5140695;27;20034;-80
2021/03/18 18:29:33;;;;;;;59.22;6.53;;;;;;;;;;5135707;27;20031;-80
2021/03/18 18:31:59;;;;;;;27.13;5.03;;;;;;;;;;5125937;27;20027;-79
2021/03/18 18:34:25;;;;;;;17.13;3.53;;;;;;;;;;5141164;27;20033;-81
2021/03/18 18:36:51;;;;;;;21.70;5.30;;;;;;;;;;5142168;27;20027;-79
2021/03/18 18:39:17;;;;;;;19.30;4.68;;;;;;;;;;5139602;27;20042;-81
2021/03/18 18:41:44;;;;;;;20.98;6.13;;;;;;;;;;5139253;27;20117;-79
2021/03/18 18:44:12;;;;;;;19.63;6.57;;;;;;;;;;5139468;27;20047;-81
2021/03/18 18:46:38;;;;;;;22.10;7.38;;;;;;;;;;5139954;27;20027;-78
2021/03/18 18:49:05;;;;;;;15.52;6.70;;;;;;;;;;5137313;27;20509;-80
2021/03/18 18:51:31;;;;;;;11.88;6.68;;;;;;;;;;5118425;28;20109;-78
2021/03/18 18:53:57;;;;;;;15.90;8.07;;;;;;;;;;5119538;28;20035;-81
